Mill Village, Pennsylvania
Current Conditions -  °F | °C
As of 10:51 PM on Wednesday 22 Oct 2014 (Local Time) from KERI Reporting Station
Overcast Overcast  
Wind Chill: 48°   Ceiling: 4400
Heat Index: 48°   Visibility: 10mi
Dew Point: 43°   Wind: 0mph
Humidity: 83%   Direction: NA
Pressure: 30.21"   Gusts: NA
Location:  41.88°N, 79.97°W
Report Text: KERI 230251Z 00000KT 10SM OVC044 09/06 A3021 RMK AO2 SLP233 T00890061 58003
Loading
Personal Weather Stations






























Interactive Weather Map
Tropical Storm Tracking
New forecast layout! Learn more

10-Day Weather Forecast

Advertisements
Track Severe Weather on mobile